Time;durP1;ratioP1;P1;durP2;ratioP2;P2;SDS_P1;SDS_P2;PMS_P1;PMS_P2;Temp;Humidity;BMP_temperature;BMP_pressure;BME280_temperature;BME280_humidity;BME280_pressure;Samples;Min_cycle;Max_cycle;Signal;HPM_P1;HPM_P2
2021/08/23 00:00:16;;;;;;;5.60;1.33;;;22.00;90.50;;;;;;4956973;28;20182;-75
2021/08/23 00:02:44;;;;;;;2.23;1.00;;;22.00;90.40;;;;;;4957353;28;20318;-79
2021/08/23 00:05:14;;;;;;;4.03;1.20;;;22.00;90.50;;;;;;4946312;28;20179;-73
2021/08/23 00:07:41;;;;;;;3.63;1.20;;;22.20;90.40;;;;;;4957795;28;20669;-70
2021/08/23 00:10:09;;;;;;;2.97;1.30;;;22.30;90.20;;;;;;4947545;28;20255;-72
2021/08/23 00:12:37;;;;;;;7.90;1.70;;;22.60;90.20;;;;;;4956145;28;20228;-73
2021/08/23 00:15:06;;;;;;;6.23;1.23;;;22.90;89.90;;;;;;4949902;29;20182;-74
2021/08/23 00:17:34;;;;;;;7.37;1.10;;;23.20;89.30;;;;;;4955878;28;20222;-75
2021/08/23 00:20:03;;;;;;;4.37;1.80;;;23.50;88.60;;;;;;4956855;28;20188;-70
2021/08/23 00:22:32;;;;;;;3.60;1.10;;;23.70;87.80;;;;;;4957752;28;20658;-67
2021/08/23 00:25:00;;;;;;;6.43;1.37;;;23.60;87.20;;;;;;4951086;28;20179;-70
2021/08/23 00:27:31;;;;;;;2.77;1.23;;;23.70;87.10;;;;;;4957080;28;20519;-69
2021/08/23 00:29:59;;;;;;;3.07;1.33;;;23.90;86.40;;;;;;4946446;28;20314;-67
2021/08/23 00:32:26;;;;;;;1.50;1.10;;;23.90;85.90;;;;;;4944484;28;20759;-66
2021/08/23 00:34:53;;;;;;;8.23;1.73;;;24.00;85.90;;;;;;4954611;29;20194;-71
2021/08/23 00:37:21;;;;;;;4.40;1.43;;;24.10;85.80;;;;;;4957702;29;20221;-68
2021/08/23 00:39:48;;;;;;;2.63;1.20;;;24.20;85.20;;;;;;4940771;29;20718;-72
2021/08/23 00:42:15;;;;;;;3.53;1.47;;;23.90;85.40;;;;;;4949522;28;20215;-69
2021/08/23 00:44:43;;;;;;;5.30;1.40;;;23.70;86.50;;;;;;4962689;28;20198;-70
2021/08/23 00:47:11;;;;;;;9.93;2.00;;;23.50;86.30;;;;;;4960341;28;20191;-69
2021/08/23 00:49:39;;;;;;;27.07;3.33;;;23.40;86.60;;;;;;4955245;28;20263;-75
2021/08/23 00:52:07;;;;;;;6.27;1.40;;;23.40;87.20;;;;;;4956828;28;20180;-70
2021/08/23 00:54:36;;;;;;;2.97;1.50;;;23.50;87.00;;;;;;4952806;28;20643;-75
2021/08/23 00:57:05;;;;;;;4.80;1.50;;;23.40;87.10;;;;;;4950649;28;20223;-72
2021/08/23 00:59:40;;;;;;;4.97;1.40;;;23.40;87.10;;;;;;4951238;28;20178;-73
2021/08/23 01:02:32;;;;;;;3.83;1.10;;;23.40;87.50;;;;;;4975836;28;20181;-70
2021/08/23 01:05:10;;;;;;;4.57;1.57;;;23.40;87.30;;;;;;4955429;28;20183;-71
2021/08/23 01:07:44;;;;;;;3.57;1.37;;;23.30;87.90;;;;;;4953649;28;20195;-71
2021/08/23 01:10:17;;;;;;;4.07;1.33;;;23.30;87.90;;;;;;4951524;28;20183;-68
2021/08/23 01:12:45;;;;;;;4.30;1.37;;;23.40;87.80;;;;;;4964977;28;20657;-73
2021/08/23 01:15:12;;;;;;;4.20;1.70;;;23.40;88.00;;;;;;4958634;28;20179;-67
2021/08/23 01:17:39;;;;;;;3.83;1.67;;;23.50;87.80;;;;;;4955829;28;20209;-77
2021/08/23 01:20:09;;;;;;;4.73;1.60;;;23.40;87.80;;;;;;4956847;28;20187;-68
2021/08/23 01:22:49;;;;;;;2.97;1.27;;;23.40;87.90;;;;;;4955848;28;20189;-73
2021/08/23 01:25:25;;;;;;;4.20;1.47;;;23.30;88.00;;;;;;4951581;28;20194;-68
2021/08/23 01:28:19;;;;;;;7.57;1.90;;;23.40;88.10;;;;;;4938202;29;20180;-71
2021/08/23 01:31:07;;;;;;;4.93;1.33;;;23.50;87.90;;;;;;4914922;29;20287;-68
2021/08/23 01:33:34;;;;;;;5.10;1.50;;;23.50;87.50;;;;;;4955142;28;20270;-67
2021/08/23 01:36:03;;;;;;;6.43;1.67;;;23.50;87.80;;;;;;4953605;28;20207;-66
2021/08/23 01:38:30;;;;;;;8.00;1.37;;;23.60;87.80;;;;;;4955730;28;20719;-67
2021/08/23 01:41:08;;;;;;;4.87;1.10;;;23.50;87.60;;;;;;4954484;28;20211;-71
2021/08/23 01:43:36;;;;;;;3.27;1.43;;;23.40;87.60;;;;;;4949105;28;20639;-69
2021/08/23 01:46:04;;;;;;;3.77;1.27;;;23.40;88.10;;;;;;4950027;28;20190;-64
2021/08/23 01:48:31;;;;;;;28.60;3.20;;;23.40;87.70;;;;;;4955401;28;20199;-69
2021/08/23 01:50:59;;;;;;;18.20;2.40;;;23.30;88.00;;;;;;4956069;29;20542;-66
2021/08/23 01:53:26;;;;;;;9.70;1.70;;;23.30;88.00;;;;;;4937219;29;20194;-67
2021/08/23 01:55:54;;;;;;;46.63;4.60;;;23.30;87.40;;;;;;4944018;28;20206;-72
2021/08/23 01:58:21;;;;;;;9.07;1.60;;;23.40;87.70;;;;;;4955429;28;20532;-69
2021/08/23 02:00:49;;;;;;;5.87;1.33;;;23.30;88.10;;;;;;4950926;28;20519;-72
2021/08/23 02:03:16;;;;;;;3.50;1.30;;;23.30;87.90;;;;;;4953249;28;20385;-65
2021/08/23 02:05:43;;;;;;;6.10;1.60;;;23.50;87.90;;;;;;4956261;28;20639;-73
2021/08/23 02:08:11;;;;;;;11.30;1.30;;;23.50;87.50;;;;;;4952062;29;20183;-67
2021/08/23 02:10:39;;;;;;;2.13;1.30;;;23.50;87.70;;;;;;4949796;28;20191;-68
2021/08/23 02:13:06;;;;;;;9.30;1.50;;;23.60;87.40;;;;;;4953009;28;20187;-69
2021/08/23 02:15:33;;;;;;;12.50;1.87;;;23.80;87.20;;;;;;4944791;28;20195;-66
2021/08/23 02:18:01;;;;;;;5.43;1.70;;;23.90;87.00;;;;;;4947734;28;20191;-77
2021/08/23 02:20:28;;;;;;;12.90;2.03;;;24.10;86.20;;;;;;4941623;29;20647;-67
2021/08/23 02:22:56;;;;;;;6.10;1.37;;;24.20;86.10;;;;;;4938989;28;20184;-71
2021/08/23 02:25:23;;;;;;;4.73;1.40;;;24.40;85.50;;;;;;4965946;28;20275;-71
2021/08/23 02:27:51;;;;;;;3.27;1.40;;;24.50;85.20;;;;;;4945088;28;20211;-65
2021/08/23 02:30:20;;;;;;;4.47;1.30;;;24.60;85.50;;;;;;4944363;29;20195;-72
2021/08/23 02:32:47;;;;;;;4.77;1.20;;;24.80;85.00;;;;;;4955585;28;20286;-72
2021/08/23 02:35:15;;;;;;;5.40;1.40;;;24.70;83.30;;;;;;4950264;28;20288;-68
2021/08/23 02:37:43;;;;;;;15.47;2.33;;;24.80;83.50;;;;;;4955422;28;20302;-66
2021/08/23 02:40:11;;;;;;;5.27;1.20;;;24.70;83.00;;;;;;4953646;28;20196;-74
2021/08/23 02:42:39;;;;;;;5.27;1.53;;;24.30;83.90;;;;;;4955325;29;20186;-67
2021/08/23 02:45:07;;;;;;;8.53;1.80;;;24.10;84.70;;;;;;4955526;28;20202;-68
2021/08/23 02:47:36;;;;;;;3.60;1.50;;;24.00;85.20;;;;;;4955765;28;20175;-75
2021/08/23 02:50:05;;;;;;;2.10;1.07;;;23.90;85.60;;;;;;4952883;28;20266;-77
2021/08/23 02:52:33;;;;;;;2.60;1.30;;;23.70;85.80;;;;;;4951895;28;20536;-68
2021/08/23 02:55:00;;;;;;;7.63;1.33;;;23.60;86.40;;;;;;4949965;28;20202;-74
2021/08/23 02:57:28;;;;;;;4.53;1.50;;;23.60;86.70;;;;;;4954725;28;20365;-65
2021/08/23 02:59:55;;;;;;;4.93;1.50;;;23.50;86.90;;;;;;4955477;28;20642;-67
2021/08/23 03:02:23;;;;;;;4.53;1.40;;;23.50;87.30;;;;;;4952894;28;20187;-72
2021/08/23 03:04:50;;;;;;;4.93;1.17;;;23.40;87.30;;;;;;4946260;28;20183;-68
2021/08/23 03:07:17;;;;;;;4.23;1.43;;;23.40;87.70;;;;;;4948062;28;20187;-66
2021/08/23 03:09:45;;;;;;;6.57;1.30;;;23.40;88.60;;;;;;4949707;28;20184;-76
2021/08/23 03:12:12;;;;;;;3.73;1.23;;;23.40;88.10;;;;;;4946518;28;20215;-71
2021/08/23 03:14:40;;;;;;;7.83;1.30;;;23.30;88.40;;;;;;4944853;28;20190;-66
2021/08/23 03:17:07;;;;;;;2.33;1.23;;;23.40;88.30;;;;;;4935251;29;20577;-73
2021/08/23 03:19:35;;;;;;;3.07;1.20;;;23.30;88.50;;;;;;4950823;28;20522;-73
2021/08/23 03:22:02;;;;;;;5.17;0.87;;;23.30;88.70;;;;;;4954976;28;20210;-69
2021/08/23 03:24:29;;;;;;;4.90;1.30;;;23.30;88.50;;;;;;4954499;28;20246;-74
2021/08/23 03:26:57;;;;;;;2.03;1.13;;;23.40;88.80;;;;;;4952805;29;20186;-74
2021/08/23 03:29:24;;;;;;;5.37;1.23;;;23.40;88.70;;;;;;4953012;28;20824;-69
2021/08/23 03:31:52;;;;;;;6.53;1.20;;;23.40;88.80;;;;;;4952910;28;20183;-69
2021/08/23 03:34:19;;;;;;;8.10;1.53;;;23.30;88.80;;;;;;4954241;28;20221;-71
2021/08/23 03:36:47;;;;;;;2.63;1.17;;;23.30;88.80;;;;;;4954103;28;20590;-64
2021/08/23 03:39:20;;;;;;;9.83;1.53;;;23.30;88.90;;;;;;4954578;29;20223;-63
2021/08/23 03:41:47;;;;;;;2.70;1.03;;;23.30;88.80;;;;;;4951904;28;20207;-65
2021/08/23 03:44:15;;;;;;;2.63;1.03;;;23.40;89.20;;;;;;4935448;29;20575;-69
2021/08/23 03:46:42;;;;;;;9.10;1.57;;;23.50;88.40;;;;;;4935026;29;20638;-65
2021/08/23 03:49:09;;;;;;;6.03;1.30;;;23.60;88.40;;;;;;4953724;28;20182;-65
2021/08/23 03:51:37;;;;;;;6.30;1.63;;;23.70;87.60;;;;;;4952784;28;20198;-67
2021/08/23 03:54:04;;;;;;;4.47;1.10;;;23.70;87.30;;;;;;4954462;28;20188;-65
2021/08/23 03:56:31;;;;;;;7.00;1.43;;;23.80;87.30;;;;;;4950027;28;20690;-69
2021/08/23 03:58:59;;;;;;;3.07;1.10;;;24.00;86.70;;;;;;4940721;29;20175;-71
2021/08/23 04:01:26;;;;;;;3.10;1.37;;;24.00;86.40;;;;;;4952993;29;20222;-67
2021/08/23 04:03:53;;;;;;;3.37;1.30;;;24.30;86.50;;;;;;4943383;29;20246;-69
2021/08/23 04:06:21;;;;;;;7.37;1.60;;;24.80;85.10;;;;;;4939391;28;20191;-69
2021/08/23 04:08:48;;;;;;;4.43;1.40;;;24.70;84.20;;;;;;4948839;28;20551;-73
2021/08/23 04:11:16;;;;;;;9.50;1.80;;;24.80;84.80;;;;;;4952305;28;20176;-65
2021/08/23 04:13:44;;;;;;;5.30;0.93;;;24.80;84.20;;;;;;4950938;28;20678;-68
2021/08/23 04:16:20;;;;;;;5.47;1.30;;;24.70;83.40;;;;;;4952876;29;20222;-75
2021/08/23 04:18:47;;;;;;;25.87;3.17;;;24.60;81.60;;;;;;4954218;29;20625;-71
2021/08/23 04:21:14;;;;;;;20.60;1.73;;;24.40;78.80;;;;;;4950706;28;20196;-66
2021/08/23 04:23:42;;;;;;;6.13;1.10;;;24.40;78.80;;;;;;4959936;28;20261;-71
2021/08/23 04:26:10;;;;;;;5.40;1.83;;;24.40;79.10;;;;;;4963155;28;20188;-64
2021/08/23 04:28:38;;;;;;;5.77;1.10;;;24.30;79.30;;;;;;4955137;28;20195;-70
2021/08/23 04:31:05;;;;;;;3.77;1.10;;;24.20;79.80;;;;;;4954350;29;20184;-65
2021/08/23 04:33:32;;;;;;;5.43;1.20;;;24.10;80.10;;;;;;4954183;28;20175;-73
2021/08/23 04:36:00;;;;;;;3.97;0.97;;;24.00;80.80;;;;;;4953705;28;20199;-66
2021/08/23 04:38:27;;;;;;;3.03;1.00;;;23.90;81.00;;;;;;4953562;28;20709;-69
2021/08/23 04:40:54;;;;;;;8.47;1.07;;;23.80;81.30;;;;;;4953140;28;20184;-67
2021/08/23 04:43:22;;;;;;;5.53;1.00;;;23.80;81.20;;;;;;4945572;28;20187;-74
2021/08/23 04:45:49;;;;;;;4.27;1.30;;;23.80;81.50;;;;;;4943619;29;20188;-74
2021/08/23 04:48:16;;;;;;;1.03;0.80;;;23.80;81.00;;;;;;4951608;28;20187;-72
2021/08/23 04:50:44;;;;;;;3.83;1.00;;;23.80;81.20;;;;;;4956833;28;20187;-71
2021/08/23 04:53:11;;;;;;;2.43;0.90;;;23.70;81.00;;;;;;4953544;28;20176;-66
2021/08/23 04:55:39;;;;;;;3.03;0.97;;;23.70;81.50;;;;;;4942449;29;20191;-65
2021/08/23 04:58:06;;;;;;;5.67;1.00;;;23.70;81.40;;;;;;4953399;28;20729;-71
2021/08/23 05:00:33;;;;;;;3.77;1.10;;;23.60;81.60;;;;;;4957125;29;20549;-67
2021/08/23 05:03:01;;;;;;;2.17;0.90;;;23.60;81.80;;;;;;4953681;28;20184;-67
2021/08/23 05:05:28;;;;;;;6.43;1.10;;;23.50;81.90;;;;;;4938207;28;20311;-68
2021/08/23 05:07:56;;;;;;;3.77;1.20;;;23.50;82.10;;;;;;4940100;29;20529;-72
2021/08/23 05:10:23;;;;;;;1.97;0.73;;;23.40;81.50;;;;;;4949045;28;20183;-69
2021/08/23 05:12:55;;;;;;;4.00;0.90;;;23.40;81.70;;;;;;4957121;28;20506;-70
2021/08/23 05:15:24;;;;;;;3.37;1.00;;;23.30;81.60;;;;;;4946418;29;20179;-74
2021/08/23 05:17:52;;;;;;;1.33;0.90;;;23.20;81.80;;;;;;4947665;29;20191;-67
2021/08/23 05:20:20;;;;;;;2.07;0.90;;;23.20;81.70;;;;;;4951965;28;20183;-71
2021/08/23 05:22:48;;;;;;;6.57;1.07;;;23.20;82.40;;;;;;4943554;28;20207;-72
2021/08/23 05:25:15;;;;;;;3.00;0.90;;;23.10;82.50;;;;;;4948656;28;20722;-71
2021/08/23 05:27:42;;;;;;;1.43;0.67;;;23.10;82.60;;;;;;4955332;28;20199;-67
2021/08/23 05:30:10;;;;;;;2.30;1.07;;;22.90;81.70;;;;;;4949254;28;20207;-68
2021/08/23 05:32:38;;;;;;;2.60;0.67;;;22.90;81.90;;;;;;4950414;28;20219;-77
2021/08/23 05:35:06;;;;;;;5.87;0.97;;;22.80;82.50;;;;;;4951531;28;20238;-69
2021/08/23 05:37:34;;;;;;;1.63;0.80;;;22.70;82.80;;;;;;4957033;29;20678;-75
2021/08/23 05:40:01;;;;;;;6.27;1.10;;;22.70;83.30;;;;;;4955700;28;20550;-76
2021/08/23 05:42:28;;;;;;;6.80;1.07;;;22.70;83.60;;;;;;4955940;28;20266;-69
2021/08/23 05:44:56;;;;;;;2.43;0.97;;;22.70;83.80;;;;;;4952642;29;20214;-68
2021/08/23 05:47:24;;;;;;;4.37;1.03;;;22.70;84.20;;;;;;4952922;28;20218;-66
2021/08/23 05:49:51;;;;;;;3.23;0.90;;;22.60;84.30;;;;;;4962425;28;20183;-69
2021/08/23 05:52:19;;;;;;;6.20;0.80;;;22.60;84.50;;;;;;4958091;28;20195;-68
2021/08/23 05:54:47;;;;;;;2.50;0.87;;;22.50;84.40;;;;;;4956105;28;20641;-70
2021/08/23 05:57:14;;;;;;;2.93;0.70;;;22.40;85.50;;;;;;4940986;28;20223;-72
2021/08/23 05:59:42;;;;;;;2.93;0.90;;;22.20;86.10;;;;;;4947140;29;20246;-67
2021/08/23 06:02:09;;;;;;;4.57;1.20;;;22.10;86.40;;;;;;4954718;28;20195;-69
2021/08/23 06:04:36;;;;;;;5.27;0.97;;;22.10;86.50;;;;;;4951454;28;20213;-68
2021/08/23 06:07:09;;;;;;;7.83;1.43;;;22.10;86.40;;;;;;4954581;29;20188;-70
2021/08/23 06:09:36;;;;;;;1.97;0.77;;;22.10;86.30;;;;;;4955176;28;20442;-76
2021/08/23 06:12:04;;;;;;;2.40;0.90;;;22.10;87.30;;;;;;4947912;28;20191;-67
2021/08/23 06:14:32;;;;;;;3.27;0.87;;;22.10;86.80;;;;;;4949103;28;20187;-72
2021/08/23 06:16:59;;;;;;;2.50;0.80;;;22.10;86.10;;;;;;4955723;28;20645;-71
2021/08/23 06:19:26;;;;;;;2.43;0.90;;;22.10;85.80;;;;;;4949054;28;20255;-74
2021/08/23 06:21:54;;;;;;;1.77;0.97;;;22.00;86.00;;;;;;4939979;28;20183;-70
2021/08/23 06:24:27;;;;;;;1.53;0.90;;;22.00;86.20;;;;;;4941073;28;20231;-73
2021/08/23 06:26:55;;;;;;;5.53;1.00;;;22.00;86.50;;;;;;4955140;28;20557;-67
2021/08/23 06:29:22;;;;;;;5.90;1.03;;;21.90;86.60;;;;;;4954171;28;20183;-68
2021/08/23 06:31:50;;;;;;;1.50;1.00;;;21.90;86.90;;;;;;4953821;28;20615;-68
2021/08/23 06:34:17;;;;;;;2.50;0.80;;;21.80;87.10;;;;;;4955693;28;20277;-67
2021/08/23 06:36:45;;;;;;;4.10;1.00;;;21.80;87.30;;;;;;4955383;29;20218;-66
2021/08/23 06:39:13;;;;;;;4.97;1.00;;;21.80;87.80;;;;;;4953675;28;20235;-68
2021/08/23 06:41:41;;;;;;;1.80;1.00;;;21.70;87.80;;;;;;4949345;28;20278;-70
2021/08/23 06:44:08;;;;;;;0.90;0.80;;;21.70;88.10;;;;;;4957097;29;20617;-68
2021/08/23 06:46:35;;;;;;;7.73;1.00;;;21.70;88.20;;;;;;4947948;28;20266;-73
2021/08/23 06:49:03;;;;;;;1.97;1.03;;;21.60;88.50;;;;;;4941109;28;20186;-75
2021/08/23 06:51:30;;;;;;;2.63;1.10;;;21.60;88.70;;;;;;4954029;28;20214;-70
2021/08/23 06:53:59;;;;;;;3.47;1.00;;;21.60;89.40;;;;;;4952782;29;20180;-72
2021/08/23 06:56:28;;;;;;;1.70;0.90;;;21.50;90.30;;;;;;4944708;28;20220;-69
2021/08/23 06:58:56;;;;;;;2.30;0.90;;;21.40;90.70;;;;;;4939555;28;20540;-71
2021/08/23 07:01:26;;;;;;;2.80;1.07;;;21.30;91.20;;;;;;4950329;28;20198;-72
2021/08/23 07:03:54;;;;;;;2.70;1.20;;;21.20;91.00;;;;;;4954206;28;20186;-72
2021/08/23 07:06:22;;;;;;;3.53;2.30;;;21.10;91.50;;;;;;4953127;28;20650;-73
2021/08/23 07:08:49;;;;;;;5.00;1.60;;;21.10;91.60;;;;;;4951917;28;20214;-71
2021/08/23 07:11:17;;;;;;;3.00;1.20;;;21.10;91.40;;;;;;4948160;28;20564;-67
2021/08/23 07:13:44;;;;;;;5.60;1.20;;;21.10;91.50;;;;;;4944753;28;20785;-75
2021/08/23 07:16:11;;;;;;;4.60;1.20;;;21.00;91.60;;;;;;4945054;28;20203;-72
2021/08/23 07:18:39;;;;;;;3.43;1.10;;;21.00;91.60;;;;;;4954950;29;20183;-75
2021/08/23 07:21:07;;;;;;;3.57;1.20;;;20.90;91.70;;;;;;4941034;28;20971;-68
2021/08/23 07:23:34;;;;;;;4.33;1.40;;;20.90;92.10;;;;;;4955410;28;20218;-73
2021/08/23 07:26:01;;;;;;;3.50;1.30;;;20.80;92.20;;;;;;4948280;28;20183;-74
2021/08/23 07:28:29;;;;;;;6.07;1.43;;;20.80;92.40;;;;;;4953523;28;20195;-70
2021/08/23 07:30:56;;;;;;;1.23;0.87;;;20.70;92.50;;;;;;4937202;28;20270;-76
2021/08/23 07:33:24;;;;;;;3.33;1.23;;;20.70;92.70;;;;;;4943190;28;20180;-76
2021/08/23 07:35:51;;;;;;;4.20;1.23;;;20.60;92.80;;;;;;4941283;28;20681;-73
2021/08/23 07:38:18;;;;;;;1.83;1.10;;;20.60;92.80;;;;;;4955712;29;20214;-67
2021/08/23 07:40:46;;;;;;;2.60;1.10;;;20.60;92.70;;;;;;4953431;28;20180;-76
2021/08/23 07:43:14;;;;;;;3.93;1.30;;;20.60;92.70;;;;;;4951767;28;20183;-75
2021/08/23 07:45:41;;;;;;;5.43;1.43;;;20.60;92.60;;;;;;4954854;28;20180;-75
2021/08/23 07:48:09;;;;;;;3.63;1.90;;;20.70;92.40;;;;;;4945832;28;20183;-75
2021/08/23 07:50:37;;;;;;;6.07;1.30;;;20.70;92.30;;;;;;4948469;28;20252;-79
2021/08/23 07:53:04;;;;;;;4.30;1.80;;;20.70;92.30;;;;;;4955026;28;20267;-78
2021/08/23 07:55:32;;;;;;;5.30;1.70;;;20.70;92.50;;;;;;4949154;29;20183;-77
2021/08/23 07:58:00;;;;;;;4.87;1.37;;;20.70;92.30;;;;;;4951101;28;20191;-76
2021/08/23 08:00:27;;;;;;;3.47;1.50;;;20.60;92.40;;;;;;4961639;28;20190;-71
2021/08/23 08:02:54;;;;;;;3.63;1.63;;;20.60;92.40;;;;;;4954884;29;20543;-80
2021/08/23 08:05:23;;;;;;;3.33;1.40;;;20.60;92.50;;;;;;4945332;28;20184;-81
2021/08/23 08:07:50;;;;;;;2.43;1.43;;;20.60;92.40;;;;;;4947632;28;20188;-68
2021/08/23 08:10:18;;;;;;;3.33;1.60;;;20.60;92.50;;;;;;4949631;28;20210;-75
2021/08/23 08:12:45;;;;;;;2.33;1.40;;;20.50;92.50;;;;;;4944087;28;20231;-73
2021/08/23 08:15:13;;;;;;;3.93;1.20;;;20.50;92.60;;;;;;4967611;28;20183;-72
2021/08/23 08:17:41;;;;;;;3.07;1.40;;;20.50;92.80;;;;;;4954591;28;20246;-74
2021/08/23 08:20:10;;;;;;;3.70;1.60;;;20.40;92.80;;;;;;4955102;28;20191;-77
2021/08/23 08:22:37;;;;;;;2.33;1.30;;;20.50;92.90;;;;;;4957222;28;20197;-72
2021/08/23 08:25:06;;;;;;;3.17;1.40;;;20.40;93.00;;;;;;4957377;28;20654;-77
2021/08/23 08:27:34;;;;;;;5.83;1.93;;;20.40;93.20;;;;;;4949029;28;20190;-76
2021/08/23 08:30:02;;;;;;;6.80;3.07;;;20.40;93.20;;;;;;4948423;28;20223;-76
2021/08/23 08:32:29;;;;;;;6.57;3.80;;;20.40;93.60;;;;;;4953327;28;20214;-74
2021/08/23 08:34:57;;;;;;;6.50;2.93;;;20.30;94.20;;;;;;4954918;28;20206;-74
2021/08/23 08:37:25;;;;;;;8.10;4.20;;;20.20;94.80;;;;;;4954651;28;20219;-72
2021/08/23 08:39:53;;;;;;;5.90;3.33;;;20.10;96.10;;;;;;4951610;28;20211;-73
2021/08/23 08:42:21;;;;;;;7.40;2.30;;;19.90;97.00;;;;;;4949098;28;20219;-74
2021/08/23 08:44:48;;;;;;;5.30;2.87;;;19.80;97.50;;;;;;4942426;29;20251;-73
2021/08/23 08:47:19;;;;;;;4.23;2.37;;;19.70;97.30;;;;;;4954703;28;20327;-71
2021/08/23 08:49:47;;;;;;;4.57;2.37;;;19.60;97.30;;;;;;4957040;29;20190;-73
2021/08/23 08:52:16;;;;;;;5.87;2.70;;;19.50;97.70;;;;;;4948571;28;20666;-72
2021/08/23 08:54:44;;;;;;;6.30;3.17;;;19.50;97.90;;;;;;4955999;28;20187;-73
2021/08/23 08:57:12;;;;;;;8.87;3.17;;;19.40;98.30;;;;;;4949528;28;20690;-73
2021/08/23 08:59:41;;;;;;;6.93;2.83;;;19.40;99.00;;;;;;4953380;28;20187;-73
2021/08/23 09:02:08;;;;;;;6.03;2.87;;;19.30;99.00;;;;;;4944164;29;20188;-74
2021/08/23 09:04:38;;;;;;;6.23;2.67;;;19.20;98.90;;;;;;4957146;28;20184;-68
2021/08/23 09:07:09;;;;;;;6.73;3.20;;;19.20;99.40;;;;;;4950329;28;20532;-73
2021/08/23 09:09:37;;;;;;;8.73;4.00;;;19.20;99.90;;;;;;4956790;28;20554;-74
2021/08/23 09:12:10;;;;;;;5.37;3.63;;;19.10;99.90;;;;;;4956240;28;20206;-72
2021/08/23 09:14:58;;;;;;;11.07;6.70;;;19.10;99.90;;;;;;4955120;28;20219;-72
2021/08/23 09:17:27;;;;;;;9.40;5.80;;;19.10;99.90;;;;;;4957065;28;20258;-74
2021/08/23 09:20:05;;;;;;;12.57;6.50;;;19.10;99.90;;;;;;4957238;28;20250;-74
2021/08/23 09:22:33;;;;;;;7.60;3.10;;;19.10;99.90;;;;;;4956082;28;20221;-69
2021/08/23 09:25:13;;;;;;;5.90;2.60;;;19.10;99.90;;;;;;4956634;28;20199;-72
2021/08/23 09:27:41;;;;;;;6.83;2.23;;;19.10;99.90;;;;;;4956577;28;20329;-67
2021/08/23 09:30:11;;;;;;;7.23;2.90;;;19.10;99.90;;;;;;4946926;28;20562;-68
2021/08/23 09:32:52;;;;;;;8.10;2.50;;;19.00;99.90;;;;;;4940369;28;20521;-70
2021/08/23 09:35:37;;;;;;;4.33;2.70;;;19.00;99.90;;;;;;4949946;28;20654;-73
2021/08/23 09:38:09;;;;;;;9.53;2.80;;;18.90;99.90;;;;;;4947824;29;20244;-74
2021/08/23 09:40:39;;;;;;;7.37;3.30;;;18.90;99.90;;;;;;4950507;28;20272;-71
2021/08/23 09:43:12;;;;;;;7.03;2.90;;;18.90;99.90;;;;;;4948071;28;20186;-68
2021/08/23 09:45:47;;;;;;;7.20;3.40;;;18.90;99.90;;;;;;4949124;28;20278;-74
2021/08/23 09:48:16;;;;;;;5.03;2.60;;;18.80;99.90;;;;;;4949654;29;20191;-68
2021/08/23 09:50:51;;;;;;;8.10;3.07;;;18.80;99.90;;;;;;4952042;29;20180;-72
2021/08/23 09:53:20;;;;;;;6.27;3.30;;;18.80;99.90;;;;;;4946779;29;20183;-73
2021/08/23 09:55:50;;;;;;;7.03;3.23;;;18.70;99.90;;;;;;4957062;28;20254;-71
2021/08/23 09:58:17;;;;;;;10.80;4.70;;;18.70;99.90;;;;;;4946551;28;20936;-69
2021/08/23 10:00:45;;;;;;;14.93;10.37;;;18.70;99.90;;;;;;4961937;28;20208;-71
2021/08/23 10:03:21;;;;;;;18.63;6.67;;;18.70;99.90;;;;;;4971713;28;20197;-68
2021/08/23 10:05:49;;;;;;;8.77;4.30;;;18.60;99.90;;;;;;4970944;28;20189;-68
2021/08/23 10:08:20;;;;;;;14.23;6.53;;;18.60;99.90;;;;;;4951354;28;20214;-69
2021/08/23 10:10:48;;;;;;;19.23;8.03;;;18.60;99.90;;;;;;4952859;28;20195;-68
2021/08/23 10:13:16;;;;;;;18.27;9.13;;;18.60;99.90;;;;;;4947166;29;20714;-66
2021/08/23 10:15:43;;;;;;;15.53;7.67;;;18.60;99.90;;;;;;4944483;29;20327;-66
2021/08/23 10:18:11;;;;;;;12.73;6.90;;;18.50;99.90;;;;;;4955790;29;20187;-66
2021/08/23 10:20:39;;;;;;;15.77;6.93;;;18.50;99.90;;;;;;4955879;28;20591;-70
2021/08/23 10:23:07;;;;;;;12.17;6.03;;;18.50;99.90;;;;;;4954627;29;20202;-67
2021/08/23 10:25:35;;;;;;;6.93;4.13;;;18.50;99.90;;;;;;4954861;29;20183;-66
2021/08/23 10:28:13;;;;;;;8.10;3.87;;;18.50;99.90;;;;;;4944328;29;20238;-66
2021/08/23 10:30:40;;;;;;;5.50;3.43;;;18.40;99.90;;;;;;4955490;29;20804;-68
2021/08/23 10:33:19;;;;;;;7.07;3.50;;;18.40;99.90;;;;;;4943266;29;20187;-70
2021/08/23 10:35:55;;;;;;;7.40;3.43;;;18.40;99.90;;;;;;4952738;28;20326;-67
2021/08/23 10:38:26;;;;;;;6.33;3.43;;;18.30;99.90;;;;;;4953834;28;20261;-66
2021/08/23 10:41:07;;;;;;;10.27;3.50;;;18.30;99.90;;;;;;4953195;28;20314;-66
2021/08/23 10:43:44;;;;;;;5.23;3.27;;;18.30;99.90;;;;;;4947954;28;20195;-68
2021/08/23 10:46:24;;;;;;;7.73;3.43;;;18.20;99.90;;;;;;4939305;28;20542;-67
2021/08/23 10:48:53;;;;;;;9.00;3.70;;;18.20;99.90;;;;;;4942387;29;20190;-69
2021/08/23 10:51:33;;;;;;;7.87;3.20;;;18.20;99.90;;;;;;4955432;28;20253;-68
2021/08/23 10:54:01;;;;;;;6.77;3.30;;;18.20;99.90;;;;;;4948518;28;20190;-65
2021/08/23 10:56:37;;;;;;;6.10;2.97;;;18.20;99.90;;;;;;4952882;28;20735;-68
2021/08/23 10:59:19;;;;;;;7.03;2.60;;;18.20;99.90;;;;;;4924275;29;20271;-66
2021/08/23 11:01:57;;;;;;;5.27;2.60;;;18.20;99.90;;;;;;4944345;29;20179;-67
2021/08/23 11:04:33;;;;;;;4.90;2.40;;;18.10;99.90;;;;;;4944696;29;20210;-65
2021/08/23 11:07:02;;;;;;;5.40;2.40;;;18.20;99.90;;;;;;4954119;29;20286;-70
2021/08/23 11:09:47;;;;;;;5.77;2.30;;;18.20;99.90;;;;;;4943235;29;20293;-68
2021/08/23 11:12:19;;;;;;;5.43;2.57;;;18.30;99.90;;;;;;4950069;28;20189;-71
2021/08/23 11:14:53;;;;;;;7.27;2.83;;;18.30;99.90;;;;;;4943961;28;20628;-70
2021/08/23 11:17:30;;;;;;;6.60;2.37;;;18.40;99.90;;;;;;4951881;29;20233;-67
2021/08/23 11:19:58;;;;;;;4.37;2.43;;;18.40;99.90;;;;;;4955169;29;20751;-69
2021/08/23 11:22:26;;;;;;;4.33;2.47;;;18.40;99.90;;;;;;4936146;29;20617;-67
2021/08/23 11:24:54;;;;;;;4.53;2.60;;;18.30;99.90;;;;;;4949933;29;20198;-67
2021/08/23 11:27:22;;;;;;;5.37;2.40;;;18.40;99.90;;;;;;4941430;29;20187;-68
2021/08/23 11:29:54;;;;;;;7.80;2.67;;;18.30;99.90;;;;;;4943908;29;20199;-67
2021/08/23 11:32:30;;;;;;;5.60;2.87;;;18.40;99.90;;;;;;4950793;28;20539;-70
2021/08/23 11:35:00;;;;;;;6.50;2.73;;;18.30;99.90;;;;;;4949339;29;20673;-72
2021/08/23 11:37:28;;;;;;;10.70;2.90;;;18.40;99.90;;;;;;4948121;28;20214;-72
2021/08/23 11:40:05;;;;;;;13.30;3.43;;;18.30;99.90;;;;;;4954677;28;20238;-67
2021/08/23 11:42:32;;;;;;;5.50;2.70;;;18.20;99.90;;;;;;4954843;28;20224;-70
2021/08/23 11:45:00;;;;;;;8.77;2.97;;;18.20;99.90;;;;;;4956350;28;20185;-67
2021/08/23 11:47:35;;;;;;;7.17;3.07;;;18.20;99.90;;;;;;4951778;28;20190;-67
2021/08/23 11:50:04;;;;;;;8.70;3.17;;;18.20;99.90;;;;;;4941634;29;20186;-66
2021/08/23 11:52:32;;;;;;;9.10;3.43;;;18.20;99.90;;;;;;4935747;29;20239;-68
2021/08/23 11:54:59;;;;;;;8.40;3.33;;;18.20;99.90;;;;;;4952277;29;20272;-70
2021/08/23 11:57:27;;;;;;;6.10;3.17;;;18.10;99.90;;;;;;4951167;28;20226;-72
2021/08/23 11:59:56;;;;;;;5.80;2.93;;;18.10;99.90;;;;;;4950353;28;20206;-71
2021/08/23 12:02:36;;;;;;;8.33;3.00;;;18.10;99.90;;;;;;4944019;29;20230;-69
2021/08/23 12:05:15;;;;;;;7.57;3.00;;;18.10;99.90;;;;;;4949264;29;20222;-67
2021/08/23 12:07:50;;;;;;;5.37;2.97;;;18.00;99.90;;;;;;4945494;29;20198;-68
2021/08/23 12:10:29;;;;;;;7.57;2.87;;;18.00;99.90;;;;;;4953756;29;20182;-67
2021/08/23 12:13:17;;;;;;;7.63;3.13;;;18.00;99.90;;;;;;4952650;28;20190;-69
2021/08/23 12:15:53;;;;;;;5.80;3.20;;;18.00;99.90;;;;;;4953842;28;20299;-68
2021/08/23 12:18:30;;;;;;;6.37;2.77;;;18.00;99.90;;;;;;4948737;29;20260;-66
2021/08/23 12:21:12;;;;;;;6.83;3.13;;;18.00;99.90;;;;;;4952384;28;21552;-74
2021/08/23 12:23:56;;;;;;;7.30;3.20;;;18.10;99.90;;;;;;4953038;29;20195;-74
2021/08/23 12:26:39;;;;;;;7.57;2.93;;;18.00;99.90;;;;;;4944143;29;20532;-74
2021/08/23 12:29:12;;;;;;;7.50;3.07;;;18.10;99.90;;;;;;4947517;28;20207;-75
2021/08/23 12:31:48;;;;;;;4.83;2.80;;;18.10;99.90;;;;;;4954691;28;20187;-74
2021/08/23 12:34:18;;;;;;;3.03;2.30;;;18.10;99.90;;;;;;4951841;28;20194;-74
2021/08/23 12:36:46;;;;;;;6.73;2.70;;;18.10;99.90;;;;;;4952731;28;20281;-73
2021/08/23 12:39:14;;;;;;;6.17;2.87;;;18.10;99.90;;;;;;4953555;28;20223;-74
2021/08/23 12:41:43;;;;;;;5.47;3.30;;;18.10;99.90;;;;;;4945868;28;20192;-74
2021/08/23 12:44:11;;;;;;;6.33;3.27;;;18.00;99.90;;;;;;4944360;29;20812;-71
2021/08/23 12:46:38;;;;;;;5.73;3.53;;;17.90;99.90;;;;;;4952257;28;20191;-74
2021/08/23 12:49:07;;;;;;;5.97;3.33;;;17.90;99.90;;;;;;4953832;29;20188;-69
2021/08/23 12:51:35;;;;;;;5.00;2.97;;;17.80;99.90;;;;;;4953309;29;20369;-67
2021/08/23 12:54:02;;;;;;;4.57;3.40;;;17.80;99.90;;;;;;4940705;28;20191;-74
2021/08/23 12:56:31;;;;;;;7.80;3.63;;;17.80;99.90;;;;;;4952838;28;20226;-67